createdAt,value
2022-11-10T00:01:11.105Z,27.55
2022-11-10T00:03:40.255Z,23.15
2022-11-10T00:06:08.887Z,27.90
2022-11-10T00:08:36.055Z,28.27
2022-11-10T00:11:07.586Z,29.55
2022-11-10T00:13:57.865Z,21.98
2022-11-10T00:16:42.879Z,27.02
2022-11-10T00:19:09.986Z,20.40
2022-11-10T00:21:37.909Z,19.52
2022-11-10T00:24:05.107Z,21.77
2022-11-10T00:26:32.585Z,26.70
2022-11-10T00:28:59.158Z,24.63
2022-11-10T00:31:28.574Z,29.75
2022-11-10T00:33:55.880Z,26.02
2022-11-10T00:36:22.648Z,26.65
2022-11-10T00:38:52.241Z,17.98
2022-11-10T00:41:19.160Z,25.83
2022-11-10T00:43:45.874Z,19.30
2022-11-10T00:46:12.759Z,26.30
2022-11-10T00:48:39.525Z,22.08
2022-11-10T00:51:06.913Z,16.85
2022-11-10T00:53:33.632Z,22.10
2022-11-10T00:56:00.407Z,24.08
2022-11-10T00:58:27.796Z,23.55
2022-11-10T01:01:04.790Z,19.75
2022-11-10T01:03:32.267Z,19.75
2022-11-10T01:05:59.498Z,19.48
2022-11-10T01:08:26.120Z,27.80
2022-11-10T01:10:52.709Z,24.25
2022-11-10T01:13:19.538Z,22.35
2022-11-10T01:15:46.351Z,20.17
2022-11-10T01:18:14.135Z,27.40
2022-11-10T01:20:40.730Z,23.73
2022-11-10T01:23:08.999Z,18.83
2022-11-10T01:25:35.565Z,22.50
2022-11-10T01:28:02.100Z,21.13
2022-11-10T01:30:28.770Z,24.45
2022-11-10T01:32:56.054Z,11.52
2022-11-10T01:35:22.621Z,18.63
2022-11-10T01:37:53.177Z,24.17
2022-11-10T01:40:20.286Z,24.40
2022-11-10T01:42:50.001Z,19.55
2022-11-10T01:45:25.235Z,21.80
2022-11-10T01:48:01.669Z,24.13
2022-11-10T01:50:36.426Z,22.48
2022-11-10T01:53:07.404Z,24.00
2022-11-10T01:55:40.004Z,27.40
2022-11-10T01:58:06.836Z,17.58
2022-11-10T02:00:33.452Z,17.95
2022-11-10T02:03:16.240Z,15.80
2022-11-10T02:05:44.326Z,15.05
2022-11-10T02:08:15.313Z,23.55
2022-11-10T02:10:42.320Z,21.73
2022-11-10T02:13:11.426Z,17.90
2022-11-10T02:15:38.313Z,18.02
2022-11-10T02:18:04.983Z,22.40
2022-11-10T02:20:31.720Z,21.48
2022-11-10T02:22:58.313Z,21.27
2022-11-10T02:25:31.338Z,22.30
2022-11-10T02:27:57.923Z,21.05
2022-11-10T02:30:27.658Z,21.83
2022-11-10T02:32:55.294Z,22.23
2022-11-10T02:35:21.850Z,18.02
2022-11-10T02:37:48.551Z,21.88
2022-11-10T02:40:15.357Z,17.42
2022-11-10T02:42:41.911Z,22.65
2022-11-10T02:45:08.881Z,13.95
2022-11-10T02:47:36.359Z,22.42
2022-11-10T02:50:02.930Z,23.15
2022-11-10T02:52:29.511Z,19.33
2022-11-10T02:54:56.399Z,23.38
2022-11-10T02:57:22.967Z,24.73
2022-11-10T02:59:49.541Z,26.13
2022-11-10T03:02:16.908Z,13.73
2022-11-10T03:04:43.467Z,26.35
2022-11-10T03:07:10.061Z,19.13
2022-11-10T03:09:36.766Z,23.65
2022-11-10T03:12:03.480Z,22.50
2022-11-10T03:14:30.039Z,27.88
2022-11-10T03:16:58.419Z,27.20
2022-11-10T03:19:24.976Z,19.40
2022-11-10T03:21:51.563Z,25.02
2022-11-10T03:24:18.230Z,27.65
2022-11-10T03:26:44.786Z,22.15
2022-11-10T03:29:11.404Z,24.38
2022-11-10T03:31:38.160Z,27.90
2022-11-10T03:34:05.755Z,24.10
2022-11-10T03:36:32.326Z,27.30
2022-11-10T03:38:59.016Z,27.73
2022-11-10T03:41:25.592Z,27.50
2022-11-10T03:43:52.355Z,24.52
2022-11-10T03:46:19.477Z,22.60
2022-11-10T03:48:50.415Z,23.17
2022-11-10T03:51:20.519Z,22.85
2022-11-10T03:53:52.452Z,22.98
2022-11-10T03:56:19.122Z,23.35
2022-11-10T03:58:47.309Z,26.73
2022-11-10T04:01:14.034Z,22.02
2022-11-10T04:03:40.604Z,25.05
2022-11-10T04:06:27.534Z,26.63
2022-11-10T04:08:59.928Z,20.08
2022-11-10T04:11:52.127Z,17.73
2022-11-10T04:14:37.536Z,19.95
2022-11-10T04:17:04.609Z,21.38
2022-11-10T04:19:31.325Z,21.00
2022-11-10T04:21:57.917Z,18.95
2022-11-10T04:24:26.546Z,22.27
2022-11-10T04:26:53.211Z,19.23
2022-11-10T04:29:20.161Z,23.48
2022-11-10T04:31:48.336Z,23.88
2022-11-10T04:34:15.842Z,21.88
2022-11-10T04:36:44.301Z,25.58
2022-11-10T04:39:12.603Z,22.20
2022-11-10T04:41:39.243Z,22.90
2022-11-10T04:44:11.582Z,19.08
2022-11-10T04:46:40.508Z,20.90
2022-11-10T04:49:07.915Z,21.70
2022-11-10T04:51:37.875Z,24.48
2022-11-10T04:54:06.595Z,24.73
2022-11-10T04:56:34.694Z,23.05
2022-11-10T04:59:01.282Z,16.25
2022-11-10T05:01:39.387Z,20.13
2022-11-10T05:04:06.010Z,23.50
2022-11-10T05:06:32.606Z,22.70
2022-11-10T05:09:00.384Z,24.92
2022-11-10T05:11:27.698Z,23.42
2022-11-10T05:13:54.268Z,24.15
2022-11-10T05:16:22.372Z,28.90
2022-11-10T05:18:54.156Z,24.30
2022-11-10T05:21:20.824Z,25.35
2022-11-10T05:23:50.139Z,29.48
2022-11-10T17:33:13.995Z,17.17
2022-11-10T17:35:44.342Z,15.05
2022-11-10T17:38:13.306Z,16.48
2022-11-10T17:40:43.740Z,17.13
2022-11-10T17:43:12.351Z,17.60
2022-11-10T17:45:39.461Z,17.20
2022-11-10T17:48:07.796Z,12.60
2022-11-10T17:50:42.057Z,17.80
2022-11-10T17:53:22.478Z,18.33
2022-11-10T17:58:30.730Z,21.27
2022-11-10T18:00:57.331Z,21.05
2022-11-10T18:03:24.316Z,17.08
2022-11-10T18:05:56.390Z,16.70
2022-11-10T18:08:23.020Z,20.63
2022-11-10T18:10:53.793Z,19.83
2022-11-10T18:13:24.431Z,17.45
2022-11-10T18:15:55.445Z,16.58
2022-11-10T18:18:25.092Z,16.85
2022-11-10T18:20:51.639Z,17.48
2022-11-10T18:23:18.240Z,19.55
2022-11-10T18:25:44.952Z,18.50
2022-11-10T18:28:16.222Z,19.60
2022-11-10T18:30:45.463Z,17.42
2022-11-10T18:33:14.114Z,18.40
2022-11-10T18:35:40.835Z,22.95
2022-11-10T18:38:08.855Z,19.95
2022-11-10T18:40:36.056Z,24.20
2022-11-10T18:43:07.132Z,18.50
2022-11-10T18:45:36.002Z,19.58
2022-11-10T18:48:04.119Z,19.95
2022-11-10T18:50:30.813Z,22.45
2022-11-10T18:52:57.736Z,22.33
2022-11-10T18:55:24.840Z,23.17
2022-11-10T18:57:54.150Z,19.10
2022-11-10T19:00:21.247Z,25.77
2022-11-10T19:02:49.121Z,22.42
2022-11-10T19:05:15.854Z,26.58
2022-11-10T19:07:42.642Z,23.02
2022-11-10T19:10:10.885Z,23.67
2022-11-10T19:12:37.553Z,24.25
2022-11-10T19:15:04.518Z,21.90
2022-11-10T19:17:31.190Z,23.50
2022-11-10T19:19:57.798Z,23.23
2022-11-10T19:22:24.526Z,20.45
2022-11-10T19:25:07.616Z,20.90
2022-11-10T19:27:35.790Z,20.70
2022-11-10T19:30:02.595Z,23.48
2022-11-10T19:32:30.476Z,21.42
2022-11-10T19:34:57.127Z,21.80
2022-11-10T19:37:24.054Z,23.77
2022-11-10T19:39:50.707Z,21.15
2022-11-10T19:42:17.749Z,21.27
2022-11-10T19:44:47.008Z,22.80
2022-11-10T19:47:13.599Z,23.30
2022-11-10T19:49:40.267Z,25.98
2022-11-10T19:52:07.181Z,16.90
2022-11-10T19:54:33.830Z,24.35
2022-11-10T19:57:01.225Z,22.90
2022-11-10T19:59:28.092Z,22.42
2022-11-10T20:01:56.435Z,22.02
2022-11-10T20:04:23.064Z,21.30
2022-11-10T20:07:09.774Z,24.33
2022-11-10T20:09:40.143Z,23.65
2022-11-10T20:12:06.959Z,25.00
2022-11-10T20:14:34.248Z,24.67
2022-11-10T20:17:00.821Z,21.98
2022-11-10T20:19:27.418Z,22.98
2022-11-10T20:21:54.054Z,21.92
2022-11-10T20:24:20.631Z,25.48
2022-11-10T20:26:49.783Z,28.10
2022-11-10T20:29:17.164Z,24.42
2022-11-10T20:31:44.561Z,28.00
2022-11-10T20:34:11.155Z,28.77
2022-11-10T20:36:39.056Z,24.60
2022-11-10T20:39:05.736Z,26.52
2022-11-10T20:41:33.503Z,27.52
2022-11-10T20:44:03.247Z,27.52
2022-11-10T20:51:45.619Z,25.08
2022-11-10T20:54:15.030Z,28.17
2022-11-10T20:56:42.416Z,25.48
2022-11-10T20:59:09.072Z,27.92
2022-11-10T21:01:37.721Z,29.70
2022-11-10T21:04:06.246Z,28.77
2022-11-10T21:06:33.029Z,26.05
2022-11-10T21:08:59.764Z,25.13
2022-11-10T21:11:46.085Z,33.13
2022-11-10T21:14:12.690Z,31.20
2022-11-10T21:16:39.289Z,31.77
2022-11-10T21:19:06.511Z,32.55
2022-11-10T21:21:36.009Z,31.25
2022-11-10T21:24:07.341Z,30.08
2022-11-10T21:26:34.619Z,18.52
2022-11-10T21:29:02.383Z,29.33
2022-11-10T21:31:32.199Z,34.78
2022-11-10T21:33:59.461Z,35.50
2022-11-10T21:36:29.407Z,33.17
2022-11-10T21:38:58.271Z,37.40
2022-11-10T21:41:25.841Z,34.25
2022-11-10T21:43:52.481Z,38.38
2022-11-10T21:46:19.363Z,33.80
2022-11-10T21:48:46.008Z,30.70
2022-11-10T21:51:14.229Z,33.45
2022-11-10T21:53:43.155Z,28.08
2022-11-10T21:56:11.026Z,35.17
2022-11-10T21:58:38.535Z,34.67
2022-11-10T22:01:12.490Z,34.13
2022-11-10T22:03:40.213Z,33.90
2022-11-10T22:06:10.107Z,31.45
2022-11-10T22:08:38.425Z,35.22
2022-11-10T22:11:24.816Z,31.85
2022-11-10T22:14:09.842Z,38.55
2022-11-10T22:17:03.899Z,35.63
2022-11-10T22:19:32.133Z,32.75
2022-11-10T22:22:03.478Z,35.28
2022-11-10T22:24:30.745Z,38.85
2022-11-10T22:27:03.074Z,36.40
2022-11-10T22:29:32.774Z,30.67
2022-11-10T22:32:02.020Z,33.75
2022-11-10T22:34:28.955Z,30.60
2022-11-10T22:36:55.754Z,33.05
2022-11-10T22:39:22.459Z,35.72
2022-11-10T22:42:08.471Z,32.85
2022-11-10T22:44:36.151Z,27.17
2022-11-10T22:47:02.862Z,29.48
2022-11-10T22:49:31.008Z,31.63
2022-11-10T22:51:57.907Z,31.30
2022-11-10T22:54:24.564Z,37.75
2022-11-10T22:56:52.511Z,35.58
2022-11-10T22:59:19.670Z,36.47
2022-11-10T23:01:46.916Z,31.00
2022-11-10T23:04:16.520Z,32.17
2022-11-10T23:06:43.586Z,28.40
2022-11-10T23:09:10.392Z,29.90
2022-11-10T23:11:37.108Z,28.00
2022-11-10T23:14:03.836Z,31.80
2022-11-10T23:16:33.863Z,30.13
2022-11-10T23:19:01.787Z,27.58
2022-11-10T23:21:30.572Z,30.80
2022-11-10T23:23:57.363Z,30.38
2022-11-10T23:26:27.851Z,30.50
2022-11-10T23:28:54.485Z,31.80
2022-11-10T23:31:25.697Z,34.42
2022-11-10T23:33:56.628Z,30.02
2022-11-10T23:36:25.267Z,29.60
2022-11-10T23:38:52.079Z,33.72
2022-11-10T23:41:20.908Z,33.42
2022-11-10T23:43:47.748Z,28.80
2022-11-10T23:46:14.773Z,33.28
2022-11-10T23:48:41.715Z,35.50
2022-11-10T23:51:11.237Z,33.53
2022-11-10T23:53:38.288Z,35.53
2022-11-10T23:56:08.981Z,29.63
2022-11-10T23:58:35.586Z,37.45
